sensor_id;sensor_type;location;lat;lon;timestamp;P1;durP1;ratioP1;P2;durP2;ratioP2
71665;SDS011;59503;53.486;10.196;2023-02-03T00:00:01;9.85;;;2.70;;
71665;SDS011;59503;53.486;10.196;2023-02-03T00:02:27;8.77;;;2.50;;
71665;SDS011;59503;53.486;10.196;2023-02-03T00:04:53;6.07;;;2.42;;
71665;SDS011;59503;53.486;10.196;2023-02-03T00:07:18;9.20;;;2.70;;
71665;SDS011;59503;53.486;10.196;2023-02-03T00:09:44;12.37;;;2.83;;
71665;SDS011;59503;53.486;10.196;2023-02-03T00:12:09;7.67;;;2.53;;
71665;SDS011;59503;53.486;10.196;2023-02-03T00:14:34;10.30;;;2.80;;
71665;SDS011;59503;53.486;10.196;2023-02-03T00:17:02;4.23;;;2.07;;
71665;SDS011;59503;53.486;10.196;2023-02-03T00:19:27;8.45;;;2.50;;
71665;SDS011;59503;53.486;10.196;2023-02-03T00:21:53;5.43;;;2.70;;
71665;SDS011;59503;53.486;10.196;2023-02-03T00:24:18;7.00;;;2.63;;
71665;SDS011;59503;53.486;10.196;2023-02-03T00:26:44;9.03;;;2.90;;
71665;SDS011;59503;53.486;10.196;2023-02-03T00:29:10;7.85;;;2.80;;
71665;SDS011;59503;53.486;10.196;2023-02-03T00:31:35;10.37;;;3.03;;
71665;SDS011;59503;53.486;10.196;2023-02-03T00:34:01;6.57;;;2.83;;
71665;SDS011;59503;53.486;10.196;2023-02-03T00:36:26;10.52;;;3.05;;
71665;SDS011;59503;53.486;10.196;2023-02-03T00:38:53;10.97;;;3.53;;
71665;SDS011;59503;53.486;10.196;2023-02-03T00:41:19;12.35;;;4.10;;
71665;SDS011;59503;53.486;10.196;2023-02-03T00:43:45;17.60;;;5.57;;
71665;SDS011;59503;53.486;10.196;2023-02-03T00:46:11;17.83;;;5.60;;
71665;SDS011;59503;53.486;10.196;2023-02-03T00:48:37;18.27;;;5.45;;
71665;SDS011;59503;53.486;10.196;2023-02-03T00:51:02;19.43;;;5.63;;
71665;SDS011;59503;53.486;10.196;2023-02-03T00:53:29;18.38;;;5.53;;
71665;SDS011;59503;53.486;10.196;2023-02-03T00:55:54;26.07;;;6.77;;
71665;SDS011;59503;53.486;10.196;2023-02-03T00:58:19;20.67;;;6.20;;
71665;SDS011;59503;53.486;10.196;2023-02-03T01:00:45;23.57;;;6.63;;
71665;SDS011;59503;53.486;10.196;2023-02-03T01:03:10;23.27;;;8.03;;
71665;SDS011;59503;53.486;10.196;2023-02-03T01:05:36;27.30;;;7.47;;
71665;SDS011;59503;53.486;10.196;2023-02-03T01:08:02;32.97;;;9.13;;
71665;SDS011;59503;53.486;10.196;2023-02-03T01:10:27;28.88;;;7.55;;
71665;SDS011;59503;53.486;10.196;2023-02-03T01:13:53;29.63;;;8.47;;
71665;SDS011;59503;53.486;10.196;2023-02-03T01:17:17;30.15;;;9.07;;
71665;SDS011;59503;53.486;10.196;2023-02-03T01:20:41;29.00;;;9.43;;
71665;SDS011;59503;53.486;10.196;2023-02-03T01:24:05;27.55;;;9.90;;
71665;SDS011;59503;53.486;10.196;2023-02-03T01:27:30;28.08;;;9.40;;
71665;SDS011;59503;53.486;10.196;2023-02-03T01:30:33;22.43;;;9.83;;
71665;SDS011;59503;53.486;10.196;2023-02-03T01:33:59;21.35;;;8.73;;
71665;SDS011;59503;53.486;10.196;2023-02-03T01:37:23;22.45;;;8.70;;
71665;SDS011;59503;53.486;10.196;2023-02-03T01:40:48;22.33;;;8.82;;
71665;SDS011;59503;53.486;10.196;2023-02-03T01:47:54;23.33;;;8.67;;
71665;SDS011;59503;53.486;10.196;2023-02-03T01:51:44;25.73;;;7.93;;
71665;SDS011;59503;53.486;10.196;2023-02-03T01:54:12;17.50;;;8.35;;
71665;SDS011;59503;53.486;10.196;2023-02-03T01:57:43;15.82;;;7.30;;
71665;SDS011;59503;53.486;10.196;2023-02-03T02:01:10;21.52;;;7.45;;
71665;SDS011;59503;53.486;10.196;2023-02-03T02:04:37;20.53;;;6.37;;
71665;SDS011;59503;53.486;10.196;2023-02-03T02:08:05;15.85;;;7.28;;
71665;SDS011;59503;53.486;10.196;2023-02-03T02:11:30;20.52;;;6.72;;
71665;SDS011;59503;53.486;10.196;2023-02-03T02:14:54;20.58;;;7.03;;
71665;SDS011;59503;53.486;10.196;2023-02-03T02:18:31;19.55;;;7.47;;
71665;SDS011;59503;53.486;10.196;2023-02-03T02:32:09;24.45;;;7.40;;
71665;SDS011;59503;53.486;10.196;2023-02-03T02:39:39;16.57;;;6.50;;
71665;SDS011;59503;53.486;10.196;2023-02-03T02:43:23;15.35;;;6.18;;
71665;SDS011;59503;53.486;10.196;2023-02-03T02:46:53;17.77;;;6.68;;
71665;SDS011;59503;53.486;10.196;2023-02-03T02:50:24;15.25;;;6.75;;
71665;SDS011;59503;53.486;10.196;2023-02-03T02:53:56;16.55;;;6.50;;
71665;SDS011;59503;53.486;10.196;2023-02-03T02:57:24;20.73;;;6.60;;
71665;SDS011;59503;53.486;10.196;2023-02-03T03:00:51;16.15;;;6.22;;
71665;SDS011;59503;53.486;10.196;2023-02-03T03:04:16;15.57;;;5.88;;
71665;SDS011;59503;53.486;10.196;2023-02-03T03:07:44;16.65;;;6.65;;
71665;SDS011;59503;53.486;10.196;2023-02-03T03:10:27;17.20;;;5.57;;
71665;SDS011;59503;53.486;10.196;2023-02-03T03:13:12;12.23;;;4.90;;
71665;SDS011;59503;53.486;10.196;2023-02-03T03:16:22;16.25;;;5.30;;
71665;SDS011;59503;53.486;10.196;2023-02-03T03:19:56;9.18;;;4.82;;
71665;SDS011;59503;53.486;10.196;2023-02-03T03:22:36;16.70;;;6.22;;
71665;SDS011;59503;53.486;10.196;2023-02-03T03:25:14;13.57;;;4.70;;
71665;SDS011;59503;53.486;10.196;2023-02-03T03:27:45;10.43;;;4.10;;
71665;SDS011;59503;53.486;10.196;2023-02-03T03:30:19;11.38;;;3.95;;
71665;SDS011;59503;53.486;10.196;2023-02-03T03:32:49;11.52;;;4.18;;
71665;SDS011;59503;53.486;10.196;2023-02-03T03:35:15;8.93;;;3.95;;
71665;SDS011;59503;53.486;10.196;2023-02-03T03:40:32;10.70;;;3.97;;
71665;SDS011;59503;53.486;10.196;2023-02-03T03:43:04;7.53;;;4.13;;
71665;SDS011;59503;53.486;10.196;2023-02-03T03:49:07;10.23;;;3.50;;
71665;SDS011;59503;53.486;10.196;2023-02-03T03:51:18;8.83;;;3.37;;
71665;SDS011;59503;53.486;10.196;2023-02-03T03:53:47;9.95;;;4.40;;
71665;SDS011;59503;53.486;10.196;2023-02-03T03:56:21;11.65;;;3.60;;
71665;SDS011;59503;53.486;10.196;2023-02-03T03:58:51;19.55;;;4.03;;
71665;SDS011;59503;53.486;10.196;2023-02-03T04:01:18;10.90;;;3.42;;
71665;SDS011;59503;53.486;10.196;2023-02-03T04:03:48;12.80;;;3.70;;
71665;SDS011;59503;53.486;10.196;2023-02-03T04:06:19;8.75;;;3.80;;
71665;SDS011;59503;53.486;10.196;2023-02-03T04:08:44;14.83;;;4.40;;
71665;SDS011;59503;53.486;10.196;2023-02-03T04:11:09;11.27;;;3.93;;
71665;SDS011;59503;53.486;10.196;2023-02-03T04:13:35;17.50;;;4.43;;
71665;SDS011;59503;53.486;10.196;2023-02-03T04:16:00;8.60;;;3.80;;
71665;SDS011;59503;53.486;10.196;2023-02-03T04:18:26;13.27;;;4.30;;
71665;SDS011;59503;53.486;10.196;2023-02-03T04:20:51;11.03;;;3.93;;
71665;SDS011;59503;53.486;10.196;2023-02-03T04:23:17;14.83;;;5.10;;
71665;SDS011;59503;53.486;10.196;2023-02-03T04:25:42;14.87;;;4.30;;
71665;SDS011;59503;53.486;10.196;2023-02-03T04:28:07;10.77;;;3.60;;
71665;SDS011;59503;53.486;10.196;2023-02-03T04:30:33;15.30;;;4.10;;
71665;SDS011;59503;53.486;10.196;2023-02-03T04:32:59;7.73;;;3.43;;
71665;SDS011;59503;53.486;10.196;2023-02-03T04:35:24;9.88;;;3.72;;
71665;SDS011;59503;53.486;10.196;2023-02-03T04:37:50;14.20;;;4.47;;
71665;SDS011;59503;53.486;10.196;2023-02-03T04:40:15;12.30;;;4.30;;
71665;SDS011;59503;53.486;10.196;2023-02-03T04:42:41;10.60;;;3.97;;
71665;SDS011;59503;53.486;10.196;2023-02-03T04:45:07;11.77;;;4.77;;
71665;SDS011;59503;53.486;10.196;2023-02-03T04:47:34;12.77;;;5.60;;
71665;SDS011;59503;53.486;10.196;2023-02-03T04:50:01;11.65;;;4.38;;
71665;SDS011;59503;53.486;10.196;2023-02-03T04:52:26;7.88;;;3.97;;
71665;SDS011;59503;53.486;10.196;2023-02-03T04:54:52;11.13;;;4.83;;
71665;SDS011;59503;53.486;10.196;2023-02-03T04:57:17;12.17;;;4.37;;
71665;SDS011;59503;53.486;10.196;2023-02-03T04:59:43;12.35;;;4.35;;
71665;SDS011;59503;53.486;10.196;2023-02-03T05:02:08;10.57;;;4.67;;
71665;SDS011;59503;53.486;10.196;2023-02-03T05:04:34;10.30;;;4.30;;
71665;SDS011;59503;53.486;10.196;2023-02-03T05:06:59;6.90;;;3.65;;
71665;SDS011;59503;53.486;10.196;2023-02-03T05:09:25;14.00;;;4.57;;
71665;SDS011;59503;53.486;10.196;2023-02-03T05:11:50;14.03;;;4.40;;
71665;SDS011;59503;53.486;10.196;2023-02-03T05:14:16;9.25;;;4.20;;
71665;SDS011;59503;53.486;10.196;2023-02-03T05:16:42;9.33;;;4.80;;
71665;SDS011;59503;53.486;10.196;2023-02-03T05:19:07;15.90;;;5.30;;
71665;SDS011;59503;53.486;10.196;2023-02-03T05:21:33;12.37;;;4.47;;
71665;SDS011;59503;53.486;10.196;2023-02-03T05:23:58;9.13;;;4.43;;
71665;SDS011;59503;53.486;10.196;2023-02-03T05:26:24;12.70;;;4.57;;
71665;SDS011;59503;53.486;10.196;2023-02-03T05:28:50;11.75;;;4.30;;
71665;SDS011;59503;53.486;10.196;2023-02-03T05:31:15;16.63;;;4.77;;
71665;SDS011;59503;53.486;10.196;2023-02-03T05:33:42;11.47;;;4.27;;
71665;SDS011;59503;53.486;10.196;2023-02-03T05:36:07;14.93;;;4.75;;
71665;SDS011;59503;53.486;10.196;2023-02-03T05:38:33;14.30;;;4.15;;
71665;SDS011;59503;53.486;10.196;2023-02-03T05:41:00;9.67;;;4.60;;
71665;SDS011;59503;53.486;10.196;2023-02-03T05:43:43;11.73;;;4.47;;
71665;SDS011;59503;53.486;10.196;2023-02-03T05:46:09;11.93;;;4.00;;
71665;SDS011;59503;53.486;10.196;2023-02-03T05:48:34;11.77;;;4.10;;
71665;SDS011;59503;53.486;10.196;2023-02-03T05:51:00;10.80;;;3.72;;
71665;SDS011;59503;53.486;10.196;2023-02-03T05:53:26;10.17;;;3.67;;
71665;SDS011;59503;53.486;10.196;2023-02-03T05:55:51;7.72;;;3.55;;
71665;SDS011;59503;53.486;10.196;2023-02-03T05:58:17;15.85;;;3.60;;
71665;SDS011;59503;53.486;10.196;2023-02-03T06:00:43;8.80;;;3.80;;
71665;SDS011;59503;53.486;10.196;2023-02-03T06:03:09;9.27;;;3.70;;
71665;SDS011;59503;53.486;10.196;2023-02-03T06:05:34;10.90;;;3.50;;
71665;SDS011;59503;53.486;10.196;2023-02-03T06:08:04;10.65;;;3.85;;
71665;SDS011;59503;53.486;10.196;2023-02-03T06:10:30;13.50;;;4.07;;
71665;SDS011;59503;53.486;10.196;2023-02-03T06:12:56;5.90;;;2.90;;
71665;SDS011;59503;53.486;10.196;2023-02-03T06:15:21;9.50;;;4.27;;
71665;SDS011;59503;53.486;10.196;2023-02-03T06:17:47;14.73;;;4.27;;
71665;SDS011;59503;53.486;10.196;2023-02-03T06:20:14;10.75;;;3.22;;
71665;SDS011;59503;53.486;10.196;2023-02-03T06:22:41;10.35;;;3.58;;
71665;SDS011;59503;53.486;10.196;2023-02-03T06:25:07;9.33;;;3.80;;
71665;SDS011;59503;53.486;10.196;2023-02-03T06:27:33;12.07;;;3.45;;
71665;SDS011;59503;53.486;10.196;2023-02-03T06:29:59;9.88;;;3.30;;
71665;SDS011;59503;53.486;10.196;2023-02-03T06:32:24;9.30;;;4.10;;
71665;SDS011;59503;53.486;10.196;2023-02-03T06:34:50;6.27;;;2.50;;
71665;SDS011;59503;53.486;10.196;2023-02-03T06:37:15;7.55;;;2.80;;
71665;SDS011;59503;53.486;10.196;2023-02-03T06:39:41;10.77;;;3.87;;
71665;SDS011;59503;53.486;10.196;2023-02-03T06:42:06;8.70;;;2.90;;
71665;SDS011;59503;53.486;10.196;2023-02-03T06:44:32;8.50;;;3.28;;
71665;SDS011;59503;53.486;10.196;2023-02-03T06:46:57;7.10;;;2.97;;
71665;SDS011;59503;53.486;10.196;2023-02-03T06:49:23;15.80;;;3.17;;
71665;SDS011;59503;53.486;10.196;2023-02-03T06:51:49;8.00;;;3.40;;
71665;SDS011;59503;53.486;10.196;2023-02-03T06:54:14;9.50;;;3.30;;
71665;SDS011;59503;53.486;10.196;2023-02-03T06:56:40;8.35;;;3.47;;
71665;SDS011;59503;53.486;10.196;2023-02-03T06:59:05;8.53;;;3.10;;
71665;SDS011;59503;53.486;10.196;2023-02-03T07:01:30;14.70;;;3.60;;
71665;SDS011;59503;53.486;10.196;2023-02-03T07:03:56;14.13;;;3.70;;
71665;SDS011;59503;53.486;10.196;2023-02-03T07:06:23;10.50;;;3.83;;
71665;SDS011;59503;53.486;10.196;2023-02-03T07:08:53;10.30;;;3.50;;
71665;SDS011;59503;53.486;10.196;2023-02-03T07:11:19;8.43;;;3.50;;
71665;SDS011;59503;53.486;10.196;2023-02-03T07:13:45;20.57;;;4.23;;
71665;SDS011;59503;53.486;10.196;2023-02-03T07:16:10;16.27;;;4.60;;
71665;SDS011;59503;53.486;10.196;2023-02-03T07:18:36;12.87;;;3.93;;
71665;SDS011;59503;53.486;10.196;2023-02-03T07:21:03;15.83;;;4.30;;
71665;SDS011;59503;53.486;10.196;2023-02-03T07:23:29;14.95;;;4.10;;
71665;SDS011;59503;53.486;10.196;2023-02-03T07:25:57;14.07;;;4.00;;
71665;SDS011;59503;53.486;10.196;2023-02-03T07:28:23;15.52;;;3.33;;
71665;SDS011;59503;53.486;10.196;2023-02-03T07:30:49;19.60;;;4.13;;
71665;SDS011;59503;53.486;10.196;2023-02-03T07:33:14;19.07;;;3.30;;
71665;SDS011;59503;53.486;10.196;2023-02-03T07:35:40;21.13;;;3.77;;
71665;SDS011;59503;53.486;10.196;2023-02-03T07:38:05;14.93;;;3.42;;
71665;SDS011;59503;53.486;10.196;2023-02-03T07:40:30;14.33;;;5.13;;
71665;SDS011;59503;53.486;10.196;2023-02-03T07:42:56;14.37;;;3.57;;
71665;SDS011;59503;53.486;10.196;2023-02-03T07:45:21;9.30;;;2.88;;
71665;SDS011;59503;53.486;10.196;2023-02-03T07:47:48;9.93;;;2.97;;
71665;SDS011;59503;53.486;10.196;2023-02-03T07:50:14;13.73;;;3.67;;
71665;SDS011;59503;53.486;10.196;2023-02-03T07:52:39;7.53;;;2.80;;
71665;SDS011;59503;53.486;10.196;2023-02-03T07:55:05;8.07;;;2.90;;
71665;SDS011;59503;53.486;10.196;2023-02-03T07:57:31;12.18;;;3.13;;
71665;SDS011;59503;53.486;10.196;2023-02-03T07:59:56;13.50;;;3.07;;
71665;SDS011;59503;53.486;10.196;2023-02-03T08:02:22;18.00;;;2.17;;
71665;SDS011;59503;53.486;10.196;2023-02-03T08:04:47;10.73;;;2.53;;
71665;SDS011;59503;53.486;10.196;2023-02-03T08:07:12;20.52;;;3.58;;
71665;SDS011;59503;53.486;10.196;2023-02-03T08:09:38;10.40;;;2.37;;
71665;SDS011;59503;53.486;10.196;2023-02-03T08:12:03;11.77;;;2.10;;
71665;SDS011;59503;53.486;10.196;2023-02-03T08:14:29;13.17;;;2.50;;
71665;SDS011;59503;53.486;10.196;2023-02-03T08:16:55;14.15;;;2.20;;
71665;SDS011;59503;53.486;10.196;2023-02-03T08:19:20;10.93;;;2.88;;
71665;SDS011;59503;53.486;10.196;2023-02-03T08:21:46;17.27;;;2.03;;
71665;SDS011;59503;53.486;10.196;2023-02-03T08:24:11;13.03;;;2.50;;
71665;SDS011;59503;53.486;10.196;2023-02-03T08:26:36;8.40;;;1.30;;
71665;SDS011;59503;53.486;10.196;2023-02-03T08:29:02;20.40;;;2.53;;
71665;SDS011;59503;53.486;10.196;2023-02-03T08:31:28;14.98;;;1.88;;
71665;SDS011;59503;53.486;10.196;2023-02-03T08:33:54;18.92;;;1.80;;
71665;SDS011;59503;53.486;10.196;2023-02-03T08:36:20;11.93;;;1.50;;
71665;SDS011;59503;53.486;10.196;2023-02-03T08:38:45;11.87;;;1.37;;
71665;SDS011;59503;53.486;10.196;2023-02-03T08:41:12;16.25;;;1.50;;
71665;SDS011;59503;53.486;10.196;2023-02-03T08:43:39;12.63;;;1.70;;
71665;SDS011;59503;53.486;10.196;2023-02-03T08:46:05;10.07;;;1.73;;
71665;SDS011;59503;53.486;10.196;2023-02-03T08:48:33;9.90;;;1.17;;
71665;SDS011;59503;53.486;10.196;2023-02-03T08:50:59;13.38;;;1.83;;
71665;SDS011;59503;53.486;10.196;2023-02-03T08:53:24;17.13;;;2.20;;
71665;SDS011;59503;53.486;10.196;2023-02-03T08:55:51;19.30;;;1.83;;
71665;SDS011;59503;53.486;10.196;2023-02-03T08:58:16;21.35;;;3.45;;
71665;SDS011;59503;53.486;10.196;2023-02-03T09:00:42;33.53;;;2.93;;
71665;SDS011;59503;53.486;10.196;2023-02-03T09:03:08;29.23;;;4.60;;
71665;SDS011;59503;53.486;10.196;2023-02-03T09:05:34;27.90;;;3.42;;
71665;SDS011;59503;53.486;10.196;2023-02-03T09:08:01;23.67;;;3.20;;
71665;SDS011;59503;53.486;10.196;2023-02-03T09:10:27;30.77;;;3.27;;
71665;SDS011;59503;53.486;10.196;2023-02-03T09:12:53;25.60;;;2.60;;
71665;SDS011;59503;53.486;10.196;2023-02-03T09:15:18;26.15;;;2.42;;
71665;SDS011;59503;53.486;10.196;2023-02-03T09:17:44;27.83;;;3.27;;
71665;SDS011;59503;53.486;10.196;2023-02-03T09:20:09;25.57;;;3.27;;
71665;SDS011;59503;53.486;10.196;2023-02-03T09:22:37;19.30;;;2.10;;
71665;SDS011;59503;53.486;10.196;2023-02-03T09:25:03;24.48;;;3.05;;
71665;SDS011;59503;53.486;10.196;2023-02-03T09:27:30;25.05;;;2.72;;
71665;SDS011;59503;53.486;10.196;2023-02-03T09:29:55;21.97;;;2.23;;
71665;SDS011;59503;53.486;10.196;2023-02-03T09:32:22;31.08;;;3.45;;
71665;SDS011;59503;53.486;10.196;2023-02-03T09:34:48;26.03;;;3.07;;
71665;SDS011;59503;53.486;10.196;2023-02-03T09:37:13;31.83;;;4.32;;
71665;SDS011;59503;53.486;10.196;2023-02-03T09:39:39;31.00;;;3.10;;
71665;SDS011;59503;53.486;10.196;2023-02-03T09:47:41;34.78;;;3.78;;
71665;SDS011;59503;53.486;10.196;2023-02-03T09:50:17;44.00;;;5.90;;
71665;SDS011;59503;53.486;10.196;2023-02-03T09:52:45;40.08;;;4.63;;
71665;SDS011;59503;53.486;10.196;2023-02-03T09:57:47;26.92;;;3.95;;
71665;SDS011;59503;53.486;10.196;2023-02-03T10:00:32;39.05;;;3.47;;
71665;SDS011;59503;53.486;10.196;2023-02-03T10:03:08;31.90;;;4.30;;
71665;SDS011;59503;53.486;10.196;2023-02-03T10:11:12;36.17;;;3.92;;
71665;SDS011;59503;53.486;10.196;2023-02-03T10:19:35;39.38;;;5.22;;
71665;SDS011;59503;53.486;10.196;2023-02-03T10:22:07;41.28;;;4.68;;
71665;SDS011;59503;53.486;10.196;2023-02-03T10:24:40;30.70;;;3.28;;
71665;SDS011;59503;53.486;10.196;2023-02-03T10:27:20;38.30;;;4.22;;
71665;SDS011;59503;53.486;10.196;2023-02-03T10:32:41;41.72;;;4.22;;
71665;SDS011;59503;53.486;10.196;2023-02-03T10:35:12;47.90;;;6.97;;
71665;SDS011;59503;53.486;10.196;2023-02-03T10:37:57;39.58;;;4.50;;
71665;SDS011;59503;53.486;10.196;2023-02-03T10:40:24;36.88;;;4.93;;
71665;SDS011;59503;53.486;10.196;2023-02-03T10:42:50;52.90;;;5.88;;
71665;SDS011;59503;53.486;10.196;2023-02-03T10:45:36;30.75;;;4.18;;
71665;SDS011;59503;53.486;10.196;2023-02-03T10:48:03;38.77;;;4.97;;
71665;SDS011;59503;53.486;10.196;2023-02-03T10:50:31;39.63;;;4.47;;
71665;SDS011;59503;53.486;10.196;2023-02-03T10:56:29;32.92;;;4.43;;
71665;SDS011;59503;53.486;10.196;2023-02-03T10:58:38;30.73;;;3.33;;
71665;SDS011;59503;53.486;10.196;2023-02-03T11:01:14;37.85;;;4.40;;
71665;SDS011;59503;53.486;10.196;2023-02-03T11:04:01;42.38;;;4.43;;
71665;SDS011;59503;53.486;10.196;2023-02-03T11:06:28;36.42;;;4.53;;
71665;SDS011;59503;53.486;10.196;2023-02-03T11:08:54;35.92;;;4.55;;
71665;SDS011;59503;53.486;10.196;2023-02-03T11:11:24;40.67;;;5.03;;
71665;SDS011;59503;53.486;10.196;2023-02-03T11:14:10;36.22;;;4.90;;
71665;SDS011;59503;53.486;10.196;2023-02-03T11:16:40;44.42;;;4.25;;
71665;SDS011;59503;53.486;10.196;2023-02-03T11:19:16;47.53;;;5.00;;
71665;SDS011;59503;53.486;10.196;2023-02-03T11:21:47;41.42;;;4.10;;
71665;SDS011;59503;53.486;10.196;2023-02-03T11:24:23;46.67;;;5.10;;
71665;SDS011;59503;53.486;10.196;2023-02-03T11:26:55;36.20;;;4.40;;
71665;SDS011;59503;53.486;10.196;2023-02-03T11:29:26;45.40;;;4.93;;
71665;SDS011;59503;53.486;10.196;2023-02-03T11:31:53;40.10;;;4.60;;
71665;SDS011;59503;53.486;10.196;2023-02-03T11:34:28;31.35;;;3.95;;
71665;SDS011;59503;53.486;10.196;2023-02-03T11:36:55;33.85;;;4.03;;
71665;SDS011;59503;53.486;10.196;2023-02-03T11:39:25;33.60;;;3.70;;
71665;SDS011;59503;53.486;10.196;2023-02-03T11:41:53;31.48;;;3.53;;
71665;SDS011;59503;53.486;10.196;2023-02-03T11:46:45;31.87;;;3.57;;
71665;SDS011;59503;53.486;10.196;2023-02-03T11:55:31;31.55;;;3.92;;
71665;SDS011;59503;53.486;10.196;2023-02-03T12:01:14;40.05;;;5.18;;
71665;SDS011;59503;53.486;10.196;2023-02-03T12:06:58;36.38;;;4.30;;
71665;SDS011;59503;53.486;10.196;2023-02-03T12:20:29;40.40;;;3.75;;
71665;SDS011;59503;53.486;10.196;2023-02-03T12:31:38;35.35;;;5.07;;
71665;SDS011;59503;53.486;10.196;2023-02-03T12:37:00;25.48;;;3.58;;
71665;SDS011;59503;53.486;10.196;2023-02-03T12:39:29;27.87;;;5.33;;
71665;SDS011;59503;53.486;10.196;2023-02-03T12:42:00;34.55;;;3.35;;
71665;SDS011;59503;53.486;10.196;2023-02-03T12:44:48;33.67;;;3.80;;
71665;SDS011;59503;53.486;10.196;2023-02-03T12:49:52;36.10;;;4.30;;
71665;SDS011;59503;53.486;10.196;2023-02-03T12:52:25;32.97;;;3.57;;
71665;SDS011;59503;53.486;10.196;2023-02-03T12:55:14;34.42;;;3.50;;
71665;SDS011;59503;53.486;10.196;2023-02-03T12:57:55;28.83;;;4.07;;
71665;SDS011;59503;53.486;10.196;2023-02-03T13:00:45;38.20;;;3.63;;
71665;SDS011;59503;53.486;10.196;2023-02-03T13:06:10;32.23;;;3.87;;
71665;SDS011;59503;53.486;10.196;2023-02-03T13:08:42;36.10;;;4.10;;
71665;SDS011;59503;53.486;10.196;2023-02-03T13:11:18;37.28;;;5.63;;
71665;SDS011;59503;53.486;10.196;2023-02-03T13:13:53;33.58;;;4.40;;
71665;SDS011;59503;53.486;10.196;2023-02-03T13:16:25;33.00;;;3.88;;
71665;SDS011;59503;53.486;10.196;2023-02-03T13:18:57;26.43;;;2.73;;
71665;SDS011;59503;53.486;10.196;2023-02-03T13:21:27;30.60;;;4.25;;
71665;SDS011;59503;53.486;10.196;2023-02-03T13:23:53;31.13;;;3.55;;
71665;SDS011;59503;53.486;10.196;2023-02-03T13:26:22;27.73;;;3.75;;
71665;SDS011;59503;53.486;10.196;2023-02-03T13:43:27;35.00;;;4.20;;
71665;SDS011;59503;53.486;10.196;2023-02-03T13:45:57;30.77;;;3.83;;
71665;SDS011;59503;53.486;10.196;2023-02-03T13:48:26;38.83;;;3.95;;
71665;SDS011;59503;53.486;10.196;2023-02-03T13:51:12;26.23;;;3.72;;
71665;SDS011;59503;53.486;10.196;2023-02-03T13:53:42;38.53;;;5.80;;
71665;SDS011;59503;53.486;10.196;2023-02-03T13:56:15;32.70;;;3.10;;
71665;SDS011;59503;53.486;10.196;2023-02-03T13:58:57;33.22;;;3.22;;
71665;SDS011;59503;53.486;10.196;2023-02-03T14:03:57;41.70;;;3.67;;
71665;SDS011;59503;53.486;10.196;2023-02-03T14:09:02;32.15;;;3.45;;
71665;SDS011;59503;53.486;10.196;2023-02-03T14:11:50;36.92;;;3.53;;
71665;SDS011;59503;53.486;10.196;2023-02-03T14:16:51;23.48;;;3.83;;
71665;SDS011;59503;53.486;10.196;2023-02-03T14:21:51;28.02;;;3.83;;
71665;SDS011;59503;53.486;10.196;2023-02-03T14:24:19;28.38;;;3.90;;
71665;SDS011;59503;53.486;10.196;2023-02-03T14:26:47;34.00;;;3.00;;
71665;SDS011;59503;53.486;10.196;2023-02-03T14:29:29;27.17;;;3.50;;
71665;SDS011;59503;53.486;10.196;2023-02-03T14:32:00;36.03;;;4.87;;
71665;SDS011;59503;53.486;10.196;2023-02-03T14:34:29;37.83;;;3.70;;
71665;SDS011;59503;53.486;10.196;2023-02-03T14:47:45;29.13;;;3.67;;
71665;SDS011;59503;53.486;10.196;2023-02-03T14:53:26;31.52;;;3.13;;
71665;SDS011;59503;53.486;10.196;2023-02-03T14:56:25;37.92;;;4.15;;
71665;SDS011;59503;53.486;10.196;2023-02-03T14:59:15;23.83;;;2.87;;
71665;SDS011;59503;53.486;10.196;2023-02-03T15:04:19;32.73;;;3.20;;
71665;SDS011;59503;53.486;10.196;2023-02-03T15:06:47;25.20;;;3.58;;
71665;SDS011;59503;53.486;10.196;2023-02-03T15:12:22;35.25;;;4.78;;
71665;SDS011;59503;53.486;10.196;2023-02-03T15:14:49;37.63;;;4.35;;
71665;SDS011;59503;53.486;10.196;2023-02-03T15:17:22;32.10;;;3.73;;
71665;SDS011;59503;53.486;10.196;2023-02-03T15:19:50;41.10;;;4.65;;
71665;SDS011;59503;53.486;10.196;2023-02-03T15:24:45;30.65;;;4.38;;
71665;SDS011;59503;53.486;10.196;2023-02-03T15:27:24;29.92;;;3.35;;
71665;SDS011;59503;53.486;10.196;2023-02-03T15:29:52;28.90;;;4.60;;
71665;SDS011;59503;53.486;10.196;2023-02-03T15:34:51;30.92;;;4.18;;
71665;SDS011;59503;53.486;10.196;2023-02-03T15:37:32;33.78;;;4.25;;
71665;SDS011;59503;53.486;10.196;2023-02-03T15:40:07;34.22;;;3.67;;
71665;SDS011;59503;53.486;10.196;2023-02-03T15:42:41;42.75;;;4.65;;
71665;SDS011;59503;53.486;10.196;2023-02-03T15:45:19;31.03;;;3.97;;
71665;SDS011;59503;53.486;10.196;2023-02-03T15:47:47;44.72;;;3.80;;
71665;SDS011;59503;53.486;10.196;2023-02-03T15:50:28;30.67;;;3.55;;
71665;SDS011;59503;53.486;10.196;2023-02-03T15:53:07;36.40;;;3.97;;
71665;SDS011;59503;53.486;10.196;2023-02-03T15:55:42;27.70;;;4.40;;
71665;SDS011;59503;53.486;10.196;2023-02-03T15:58:17;33.70;;;4.23;;
71665;SDS011;59503;53.486;10.196;2023-02-03T16:00:48;38.10;;;4.80;;
71665;SDS011;59503;53.486;10.196;2023-02-03T16:03:18;30.70;;;3.35;;
71665;SDS011;59503;53.486;10.196;2023-02-03T16:06:08;34.17;;;3.40;;
71665;SDS011;59503;53.486;10.196;2023-02-03T16:08:44;30.92;;;3.97;;
71665;SDS011;59503;53.486;10.196;2023-02-03T16:11:20;37.47;;;3.30;;
71665;SDS011;59503;53.486;10.196;2023-02-03T16:13:51;29.20;;;3.60;;
71665;SDS011;59503;53.486;10.196;2023-02-03T16:23:52;39.47;;;3.37;;
71665;SDS011;59503;53.486;10.196;2023-02-03T16:26:18;30.08;;;3.20;;
71665;SDS011;59503;53.486;10.196;2023-02-03T16:31:58;42.20;;;4.00;;
71665;SDS011;59503;53.486;10.196;2023-02-03T16:34:43;42.20;;;4.10;;
71665;SDS011;59503;53.486;10.196;2023-02-03T16:37:32;32.88;;;3.47;;
71665;SDS011;59503;53.486;10.196;2023-02-03T16:40:25;24.20;;;3.15;;
71665;SDS011;59503;53.486;10.196;2023-02-03T16:43:11;28.87;;;3.93;;
71665;SDS011;59503;53.486;10.196;2023-02-03T16:45:56;33.90;;;4.07;;
71665;SDS011;59503;53.486;10.196;2023-02-03T16:48:41;41.42;;;4.35;;
71665;SDS011;59503;53.486;10.196;2023-02-03T16:51:26;26.17;;;3.53;;
71665;SDS011;59503;53.486;10.196;2023-02-03T16:54:04;37.65;;;5.55;;
71665;SDS011;59503;53.486;10.196;2023-02-03T16:56:30;41.37;;;4.40;;
71665;SDS011;59503;53.486;10.196;2023-02-03T16:58:55;42.00;;;5.47;;
71665;SDS011;59503;53.486;10.196;2023-02-03T17:01:21;29.63;;;5.50;;
71665;SDS011;59503;53.486;10.196;2023-02-03T17:03:46;34.10;;;3.33;;
71665;SDS011;59503;53.486;10.196;2023-02-03T17:06:12;24.70;;;3.15;;
71665;SDS011;59503;53.486;10.196;2023-02-03T17:08:39;29.20;;;4.00;;
71665;SDS011;59503;53.486;10.196;2023-02-03T17:11:07;31.38;;;3.75;;
71665;SDS011;59503;53.486;10.196;2023-02-03T17:13:35;32.60;;;3.80;;
71665;SDS011;59503;53.486;10.196;2023-02-03T17:16:05;34.40;;;4.30;;
71665;SDS011;59503;53.486;10.196;2023-02-03T17:18:32;27.75;;;3.63;;
71665;SDS011;59503;53.486;10.196;2023-02-03T17:21:02;46.27;;;4.63;;
71665;SDS011;59503;53.486;10.196;2023-02-03T17:23:29;43.40;;;3.72;;
71665;SDS011;59503;53.486;10.196;2023-02-03T17:25:55;36.87;;;3.53;;
71665;SDS011;59503;53.486;10.196;2023-02-03T17:28:20;39.13;;;3.60;;
71665;SDS011;59503;53.486;10.196;2023-02-03T17:30:54;34.57;;;4.23;;
71665;SDS011;59503;53.486;10.196;2023-02-03T17:33:20;37.80;;;4.03;;
71665;SDS011;59503;53.486;10.196;2023-02-03T17:35:45;33.63;;;4.63;;